createdAt,value
2023-04-16T00:00:03.296Z,6.67
2023-04-16T00:03:13.556Z,6.57
2023-04-16T00:06:16.561Z,6.49
2023-04-16T00:09:18.941Z,6.41
2023-04-16T00:12:21.841Z,6.43
2023-04-16T00:15:24.116Z,6.32
2023-04-16T00:18:38.122Z,6.21
2023-04-16T00:21:40.937Z,6.20
2023-04-16T00:24:43.651Z,6.12
2023-04-16T00:27:46.065Z,6.06
2023-04-16T00:30:48.863Z,6.20
2023-04-16T00:33:51.262Z,6.18
2023-04-16T00:36:53.892Z,6.10
2023-04-16T00:39:56.205Z,6.10
2023-04-16T00:42:59.198Z,6.10
2023-04-16T00:46:04.263Z,6.05
2023-04-16T00:49:07.817Z,6.01
2023-04-16T00:52:11.778Z,6.05
2023-04-16T00:55:15.217Z,6.07
2023-04-16T00:58:17.584Z,6.02
2023-04-16T01:01:20.322Z,6.00
2023-04-16T01:04:22.927Z,5.94
2023-04-16T01:07:25.674Z,5.97
2023-04-16T01:10:28.055Z,5.99
2023-04-16T01:13:31.084Z,5.98
2023-04-16T01:16:33.415Z,5.97
2023-04-16T01:19:36.399Z,5.97
2023-04-16T01:22:38.777Z,6.00
2023-04-16T01:25:41.484Z,5.98
2023-04-16T01:28:44.253Z,6.04
2023-04-16T01:31:47.122Z,6.09
2023-04-16T01:34:49.771Z,6.07
2023-04-16T01:37:52.626Z,6.03
2023-04-16T01:40:58.038Z,6.03
2023-04-16T01:44:00.683Z,5.98
2023-04-16T01:47:04.253Z,6.01
2023-04-16T01:50:07.271Z,6.03
2023-04-16T01:53:09.752Z,5.94
2023-04-16T01:56:12.387Z,5.82
2023-04-16T01:59:14.667Z,5.73
2023-04-16T02:02:17.711Z,5.79
2023-04-16T02:05:20.320Z,5.78
2023-04-16T02:08:22.904Z,5.82
2023-04-16T02:11:26.494Z,5.64
2023-04-16T02:14:29.761Z,5.59
2023-04-16T02:17:32.359Z,5.54
2023-04-16T02:20:47.342Z,5.45
2023-04-16T02:23:51.724Z,5.40
2023-04-16T02:26:55.384Z,5.40
2023-04-16T02:29:57.785Z,5.48
2023-04-16T02:33:01.930Z,5.41
2023-04-16T02:36:04.518Z,5.34
2023-04-16T02:39:07.906Z,5.39
2023-04-16T02:42:10.696Z,5.35
2023-04-16T02:45:13.387Z,5.24
2023-04-16T02:48:15.697Z,5.18
2023-04-16T02:51:18.412Z,5.30
2023-04-16T02:54:20.646Z,5.31
2023-04-16T02:57:23.255Z,5.34
2023-04-16T03:00:25.666Z,5.37
2023-04-16T03:03:28.225Z,5.27
2023-04-16T03:06:31.440Z,5.28
2023-04-16T03:09:34.159Z,5.33
2023-04-16T03:12:36.414Z,5.17
2023-04-16T03:15:42.058Z,5.09
2023-04-16T03:18:44.459Z,5.02
2023-04-16T03:21:47.099Z,5.02
2023-04-16T03:24:49.403Z,5.02
2023-04-16T03:27:51.879Z,4.89
2023-04-16T03:30:54.655Z,5.05
2023-04-16T03:33:57.645Z,4.97
2023-04-16T03:37:00.326Z,4.93
2023-04-16T03:40:07.150Z,4.83
2023-04-16T03:43:10.059Z,4.85
2023-04-16T03:46:13.079Z,4.82
2023-04-16T03:49:15.484Z,4.87
2023-04-16T03:52:19.038Z,4.86
2023-04-16T03:55:21.571Z,4.92
2023-04-16T03:58:24.340Z,4.92
2023-04-16T04:01:27.169Z,4.87
2023-04-16T04:04:30.039Z,4.96
2023-04-16T04:07:33.165Z,4.98
2023-04-16T04:10:36.236Z,4.98
2023-04-16T04:13:39.167Z,4.96
2023-04-16T04:16:41.867Z,5.01
2023-04-16T04:19:54.281Z,5.09
2023-04-16T04:23:02.934Z,5.16
2023-04-16T04:26:07.518Z,5.18
2023-04-16T04:29:10.836Z,5.24
2023-04-16T04:32:13.712Z,5.36
2023-04-16T04:35:16.301Z,5.49
2023-04-16T04:38:20.114Z,5.71
2023-04-16T04:41:23.126Z,5.77
2023-04-16T04:44:25.538Z,5.85
2023-04-16T04:47:28.491Z,5.87
2023-04-16T04:50:31.540Z,5.87
2023-04-16T04:53:34.714Z,5.81
2023-04-16T04:56:37.152Z,5.63
2023-04-16T04:59:39.707Z,5.64
2023-04-16T05:02:42.333Z,5.65
2023-04-16T05:05:44.981Z,5.67
2023-04-16T05:08:47.693Z,5.67
2023-04-16T05:11:50.465Z,5.67
2023-04-16T05:14:52.881Z,5.70
2023-04-16T05:17:58.494Z,5.76
2023-04-16T05:21:01.231Z,5.95
2023-04-16T05:24:03.855Z,6.13
2023-04-16T05:27:06.587Z,6.18
2023-04-16T05:30:10.160Z,6.23
2023-04-16T05:33:12.708Z,6.22
2023-04-16T05:36:18.696Z,6.19
2023-04-16T05:39:21.287Z,6.17
2023-04-16T05:42:24.006Z,6.18
2023-04-16T05:45:28.024Z,6.25
2023-04-16T05:48:31.224Z,6.33
2023-04-16T05:51:33.596Z,6.44
2023-04-16T05:54:36.208Z,6.57
2023-04-16T05:57:38.576Z,6.57
2023-04-16T06:00:41.454Z,6.60
2023-04-16T06:03:45.381Z,6.62
2023-04-16T06:06:47.894Z,6.64
2023-04-16T06:09:50.606Z,6.68
2023-04-16T06:12:52.920Z,6.94
2023-04-16T06:15:55.967Z,7.24
2023-04-16T06:18:58.670Z,7.34
2023-04-16T06:22:01.606Z,7.58
2023-04-16T06:25:04.350Z,7.39
2023-04-16T06:28:06.908Z,7.37
2023-04-16T06:31:09.631Z,7.69
2023-04-16T06:34:12.284Z,7.87
2023-04-16T06:37:14.701Z,8.12
2023-04-16T06:40:17.358Z,8.32
2023-04-16T06:43:19.865Z,8.40
2023-04-16T06:46:22.519Z,8.59
2023-04-16T06:49:24.836Z,8.38
2023-04-16T06:52:27.579Z,8.47
2023-04-16T06:55:29.849Z,8.87
2023-04-16T06:58:33.033Z,8.89
2023-04-16T07:01:35.479Z,8.71
2023-04-16T07:04:38.251Z,8.89
2023-04-16T07:07:40.620Z,8.92
2023-04-16T07:10:43.293Z,8.92
2023-04-16T07:13:45.792Z,9.04
2023-04-16T07:16:48.523Z,8.89
2023-04-16T07:19:51.641Z,9.12
2023-04-16T07:22:54.231Z,9.16
2023-04-16T07:25:56.596Z,9.82
2023-04-16T07:28:59.352Z,10.48
2023-04-16T07:32:02.058Z,10.52
2023-04-16T07:35:04.959Z,10.97
2023-04-16T07:38:07.246Z,11.25
2023-04-16T07:41:09.948Z,11.19
2023-04-16T07:44:12.330Z,10.80
2023-04-16T07:47:15.006Z,10.75
2023-04-16T07:50:19.406Z,10.40
2023-04-16T07:53:22.234Z,10.70
2023-04-16T07:56:24.519Z,10.99
2023-04-16T07:59:27.803Z,11.14
2023-04-16T08:02:30.885Z,11.50
2023-04-16T08:05:33.609Z,11.64
2023-04-16T08:08:36.303Z,12.28
2023-04-16T08:11:38.924Z,11.32
2023-04-16T08:14:41.486Z,11.51
2023-04-16T08:17:44.503Z,11.63
2023-04-16T08:20:46.779Z,11.50
2023-04-16T08:23:50.009Z,12.19
2023-04-16T08:26:52.491Z,13.27
2023-04-16T08:29:55.320Z,14.20
2023-04-16T08:32:57.791Z,14.59
2023-04-16T08:36:00.417Z,14.30
2023-04-16T08:39:02.717Z,13.91
2023-04-16T08:42:06.415Z,13.76
2023-04-16T08:45:18.243Z,14.12
2023-04-16T08:48:22.148Z,14.11
2023-04-16T08:51:28.158Z,14.72
2023-04-16T08:54:30.747Z,15.49
2023-04-16T08:57:40.902Z,15.94
2023-04-16T09:00:43.737Z,14.73
2023-04-16T09:03:47.481Z,15.21
2023-04-16T09:06:51.162Z,14.69
2023-04-16T09:09:53.848Z,14.73
2023-04-16T09:12:57.110Z,14.62
2023-04-16T09:15:59.898Z,15.30
2023-04-16T09:19:02.753Z,15.14
2023-04-16T09:22:05.040Z,14.58
2023-04-16T09:25:08.200Z,14.63
2023-04-16T09:28:10.956Z,14.31
2023-04-16T09:31:18.156Z,13.99
2023-04-16T09:34:21.010Z,13.85
2023-04-16T09:37:24.199Z,14.17
2023-04-16T09:40:27.533Z,14.00
2023-04-16T09:43:31.951Z,13.90
2023-04-16T09:46:34.876Z,13.90
2023-04-16T09:49:42.038Z,13.77
2023-04-16T09:52:45.877Z,13.86
2023-04-16T09:55:48.522Z,13.58
2023-04-16T09:58:51.091Z,13.83
2023-04-16T10:02:15.735Z,13.56
2023-04-16T10:05:20.192Z,13.52
2023-04-16T10:08:23.898Z,13.95
2023-04-16T10:11:27.105Z,14.34
2023-04-16T10:14:29.499Z,14.81
2023-04-16T10:17:32.649Z,15.27
2023-04-16T10:20:35.368Z,15.32
2023-04-16T10:23:38.822Z,15.30
2023-04-16T10:26:41.236Z,15.78
2023-04-16T10:29:44.667Z,16.78
2023-04-16T10:32:47.660Z,16.63
2023-04-16T10:36:01.388Z,16.33
2023-04-16T10:39:12.165Z,16.66
2023-04-16T10:42:15.659Z,17.66
2023-04-16T10:45:17.936Z,17.14
2023-04-16T10:48:20.672Z,17.69
2023-04-16T10:51:29.464Z,18.49
2023-04-16T10:54:34.333Z,18.97
2023-04-16T10:57:36.878Z,17.88
2023-04-16T11:00:50.927Z,18.52
2023-04-16T11:03:53.564Z,20.54
2023-04-16T11:07:03.219Z,20.14
2023-04-16T11:10:06.642Z,19.53
2023-04-16T11:13:12.336Z,20.25
2023-04-16T11:16:15.942Z,21.51
2023-04-16T11:19:19.096Z,21.67
2023-04-16T11:22:21.457Z,23.51
2023-04-16T11:25:25.051Z,22.42
2023-04-16T11:28:36.811Z,21.87
2023-04-16T11:31:39.605Z,20.70
2023-04-16T11:34:45.990Z,19.46
2023-04-16T11:37:49.004Z,18.73
2023-04-16T11:40:51.802Z,18.50
2023-04-16T11:43:55.304Z,18.88
2023-04-16T11:46:57.689Z,19.56
2023-04-16T11:50:15.627Z,20.22
2023-04-16T11:53:18.065Z,21.57
2023-04-16T11:56:27.512Z,20.33
2023-04-16T11:59:29.928Z,19.89
2023-04-16T12:02:36.549Z,20.58
2023-04-16T12:05:39.692Z,22.17
2023-04-16T12:08:42.712Z,21.42
2023-04-16T12:11:45.563Z,22.05
2023-04-16T12:14:51.038Z,21.99
2023-04-16T12:18:06.803Z,22.71
2023-04-16T12:21:09.216Z,21.25
2023-04-16T12:24:13.578Z,20.78
2023-04-16T12:27:16.399Z,19.50
2023-04-16T12:30:20.059Z,19.57
2023-04-16T12:33:22.400Z,18.86
2023-04-16T12:36:25.292Z,19.44
2023-04-16T12:39:27.639Z,18.05
2023-04-16T12:42:35.695Z,17.33
2023-04-16T12:45:38.765Z,17.85
2023-04-16T12:48:42.677Z,18.73
2023-04-16T12:51:45.322Z,17.83
2023-04-16T12:54:47.982Z,17.81
2023-04-16T12:57:53.251Z,18.07
2023-04-16T13:00:56.291Z,19.05
2023-04-16T13:03:58.714Z,18.57
2023-04-16T13:07:01.513Z,20.15
2023-04-16T13:10:04.268Z,20.01
2023-04-16T13:13:07.042Z,20.48
2023-04-16T13:16:09.584Z,19.80
2023-04-16T13:19:12.416Z,20.03
2023-04-16T13:22:14.977Z,19.06
2023-04-16T13:25:17.650Z,19.30
2023-04-16T13:28:20.106Z,19.03
2023-04-16T13:31:22.918Z,19.01
2023-04-16T13:34:25.440Z,18.84
2023-04-16T13:37:28.064Z,18.03
2023-04-16T13:40:30.613Z,18.16
2023-04-16T13:43:33.444Z,18.31
2023-04-16T13:46:35.837Z,17.78
2023-04-16T13:49:38.598Z,18.07
2023-04-16T13:52:41.227Z,17.70
2023-04-16T13:55:44.191Z,17.70
2023-04-16T13:58:46.613Z,17.18
2023-04-16T14:01:49.457Z,17.21
2023-04-16T14:04:52.180Z,17.13
2023-04-16T14:07:54.428Z,17.38
2023-04-16T14:10:58.110Z,17.93
2023-04-16T14:14:00.940Z,18.10
2023-04-16T14:17:04.306Z,18.03
2023-04-16T14:20:07.058Z,17.78
2023-04-16T14:23:09.694Z,17.24
2023-04-16T14:26:12.119Z,17.06
2023-04-16T14:29:15.604Z,16.85
2023-04-16T14:32:17.995Z,17.03
2023-04-16T14:35:20.919Z,16.84
2023-04-16T14:38:23.263Z,16.69
2023-04-16T14:41:25.885Z,16.99
2023-04-16T14:44:28.414Z,16.99
2023-04-16T14:47:31.046Z,16.92
2023-04-16T14:50:43.524Z,16.87
2023-04-16T14:53:46.235Z,16.86
2023-04-16T14:56:49.274Z,17.08
2023-04-16T14:59:51.841Z,17.27
2023-04-16T15:02:57.852Z,17.20
2023-04-16T15:06:00.634Z,16.99
2023-04-16T15:09:04.025Z,16.89
2023-04-16T15:12:06.952Z,16.86
2023-04-16T15:15:09.579Z,17.01
2023-04-16T15:18:12.184Z,16.97
2023-04-16T15:21:16.741Z,16.87
2023-04-16T15:24:19.373Z,16.81
2023-04-16T15:27:21.692Z,16.88
2023-04-16T15:30:24.425Z,16.80
2023-04-16T15:33:26.852Z,16.58
2023-04-16T15:36:29.486Z,16.70
2023-04-16T15:39:31.871Z,16.69
2023-04-16T15:42:34.645Z,16.76
2023-04-16T15:45:37.529Z,17.12
2023-04-16T15:48:40.278Z,17.16
2023-04-16T15:51:42.655Z,17.19
2023-04-16T15:54:45.756Z,16.85
2023-04-16T15:57:48.072Z,16.87
2023-04-16T16:00:50.977Z,16.72
2023-04-16T16:03:53.917Z,16.68
2023-04-16T16:06:56.340Z,16.52
2023-04-16T16:09:59.228Z,16.08
2023-04-16T16:13:05.387Z,15.95
2023-04-16T16:16:08.027Z,15.79
2023-04-16T16:19:11.125Z,15.67
2023-04-16T16:22:14.006Z,15.65
2023-04-16T16:25:16.698Z,15.64
2023-04-16T16:28:19.370Z,15.66
2023-04-16T16:31:21.678Z,15.57
2023-04-16T16:34:24.255Z,15.62
2023-04-16T16:37:26.722Z,15.61
2023-04-16T16:40:30.509Z,15.59
2023-04-16T16:43:33.253Z,15.68
2023-04-16T16:46:36.750Z,15.65
2023-04-16T16:49:39.114Z,15.66
2023-04-16T16:52:42.009Z,15.63
2023-04-16T16:55:44.427Z,15.60
2023-04-16T16:58:47.306Z,15.58
2023-04-16T17:01:49.892Z,15.49
2023-04-16T17:04:52.898Z,15.46
2023-04-16T17:07:55.140Z,15.42
2023-04-16T17:10:57.800Z,15.36
2023-04-16T17:14:00.171Z,15.27
2023-04-16T17:17:02.811Z,15.19
2023-04-16T17:20:10.813Z,15.15
2023-04-16T17:23:14.108Z,15.06
2023-04-16T17:26:16.391Z,14.98
2023-04-16T17:29:20.779Z,14.94
2023-04-16T17:32:23.216Z,14.92
2023-04-16T17:35:26.028Z,14.77
2023-04-16T17:38:28.366Z,14.68
2023-04-16T17:41:31.125Z,14.55
2023-04-16T17:44:33.713Z,14.51
2023-04-16T17:47:36.603Z,14.38
2023-04-16T17:50:39.710Z,14.31
2023-04-16T17:53:43.569Z,14.20
2023-04-16T17:56:46.272Z,14.07
2023-04-16T17:59:48.911Z,13.96
2023-04-16T18:02:52.464Z,13.88
2023-04-16T18:05:55.235Z,13.87
2023-04-16T18:08:57.752Z,13.80
2023-04-16T18:12:01.348Z,13.73
2023-04-16T18:15:04.142Z,13.62
2023-04-16T18:18:07.088Z,13.54
2023-04-16T18:21:09.377Z,13.58
2023-04-16T18:24:12.203Z,13.54
2023-04-16T18:27:14.847Z,13.49
2023-04-16T18:30:25.110Z,13.46
2023-04-16T18:33:49.988Z,13.67
2023-04-16T18:36:52.049Z,13.45
2023-04-16T18:39:55.571Z,13.43
2023-04-16T18:43:00.067Z,13.31
2023-04-16T18:46:02.531Z,13.31
2023-04-16T18:49:05.460Z,13.40
2023-04-16T18:52:08.752Z,13.36
2023-04-16T18:55:11.424Z,13.37
2023-04-16T18:58:13.662Z,13.37
2023-04-16T19:01:16.542Z,13.37
2023-04-16T19:04:19.532Z,13.33
2023-04-16T19:07:22.111Z,13.29
2023-04-16T19:10:24.542Z,13.32
2023-04-16T19:13:32.481Z,13.34
2023-04-16T19:16:35.164Z,13.32
2023-04-16T19:19:37.680Z,13.41
2023-04-16T19:22:40.102Z,13.23
2023-04-16T19:25:42.655Z,13.10
2023-04-16T19:28:46.012Z,13.07
2023-04-16T19:31:48.807Z,13.06
2023-04-16T19:34:51.138Z,12.94
2023-04-16T19:37:56.263Z,13.02
2023-04-16T19:40:58.657Z,13.02
2023-04-16T19:44:01.608Z,12.96
2023-04-16T19:47:04.212Z,12.87
2023-04-16T19:50:07.930Z,12.99
2023-04-16T19:53:11.008Z,13.09
2023-04-16T19:56:14.131Z,13.02
2023-04-16T19:59:17.379Z,13.04
2023-04-16T20:02:20.063Z,12.96
2023-04-16T20:05:22.881Z,12.88
2023-04-16T20:08:25.233Z,12.92
2023-04-16T20:11:28.722Z,12.85
2023-04-16T20:14:31.124Z,12.85
2023-04-16T20:17:33.749Z,12.89
2023-04-16T20:20:37.819Z,12.85
2023-04-16T20:23:40.594Z,12.88
2023-04-16T20:26:42.974Z,12.82
2023-04-16T20:29:45.816Z,12.79
2023-04-16T20:32:48.456Z,12.88
2023-04-16T20:35:52.217Z,12.80
2023-04-16T20:38:54.537Z,12.85
2023-04-16T20:41:57.171Z,12.89
2023-04-16T20:45:00.709Z,12.88
2023-04-16T20:48:03.929Z,12.76
2023-04-16T20:51:07.668Z,12.79
2023-04-16T20:54:10.408Z,12.85
2023-04-16T20:57:12.742Z,12.81
2023-04-16T21:00:16.574Z,12.66
2023-04-16T21:03:19.521Z,12.66
2023-04-16T21:06:22.578Z,12.64
2023-04-16T21:09:25.060Z,12.59
2023-04-16T21:12:27.697Z,12.64
2023-04-16T21:15:30.976Z,12.59
2023-04-16T21:18:34.863Z,12.54
2023-04-16T21:21:38.314Z,12.52
2023-04-16T21:24:41.061Z,12.58
2023-04-16T21:27:43.472Z,12.55
2023-04-16T21:30:46.211Z,12.50
2023-04-16T21:33:48.628Z,12.43
2023-04-16T21:36:51.170Z,12.40
2023-04-16T21:39:53.552Z,12.42
2023-04-16T21:42:56.360Z,12.38
2023-04-16T21:45:59.439Z,12.28
2023-04-16T21:49:02.118Z,12.25
2023-04-16T21:52:04.906Z,12.25
2023-04-16T21:55:09.160Z,12.15
2023-04-16T21:58:11.452Z,12.04
2023-04-16T22:01:14.243Z,12.03
2023-04-16T22:04:17.834Z,12.02
2023-04-16T22:07:20.806Z,11.95
2023-04-16T22:10:23.516Z,11.96
2023-04-16T22:13:29.914Z,11.95
2023-04-16T22:16:33.520Z,11.92
2023-04-16T22:19:37.358Z,11.88
2023-04-16T22:22:41.061Z,11.88
2023-04-16T22:25:43.588Z,11.93
2023-04-16T22:28:46.606Z,11.99
2023-04-16T22:31:49.042Z,11.97
2023-04-16T22:34:52.306Z,11.97
2023-04-16T22:37:54.787Z,12.01
2023-04-16T22:40:57.438Z,12.06
2023-04-16T22:43:59.895Z,12.02
2023-04-16T22:47:02.538Z,11.93
2023-04-16T22:50:06.284Z,11.92
2023-04-16T22:53:09.002Z,11.94
2023-04-16T22:56:11.886Z,11.88
2023-04-16T22:59:14.552Z,11.82
2023-04-16T23:02:17.433Z,11.81
2023-04-16T23:05:20.330Z,11.94
2023-04-16T23:08:22.801Z,11.84
2023-04-16T23:11:25.543Z,11.88
2023-04-16T23:14:28.301Z,11.85
2023-04-16T23:17:31.129Z,11.82
2023-04-16T23:20:33.613Z,11.79
2023-04-16T23:23:36.702Z,11.72
2023-04-16T23:26:39.004Z,11.72
2023-04-16T23:29:42.104Z,11.70
2023-04-16T23:32:45.988Z,11.65
2023-04-16T23:35:48.724Z,11.75
2023-04-16T23:38:51.079Z,11.72
2023-04-16T23:41:53.709Z,11.72
2023-04-16T23:44:56.122Z,11.68
2023-04-16T23:47:58.970Z,11.63
2023-04-16T23:51:01.318Z,11.64
2023-04-16T23:54:04.188Z,11.68
2023-04-16T23:57:06.588Z,11.59
